Time;durP1;ratioP1;P1;durP2;ratioP2;P2;SDS_P1;SDS_P2;PMS_P1;PMS_P2;Temp;Humidity;BMP_temperature;BMP_pressure;BME280_temperature;BME280_humidity;BME280_pressure;Samples;Min_cycle;Max_cycle;Signal;HPM_P1;HPM_P2
2021/03/08 00:01:07;;;;;;;19.80;11.00;;;5.40;99.90;;;;;;5034972;28;20225;-80
2021/03/08 00:03:33;;;;;;;20.33;11.00;;;5.40;99.90;;;;;;5035179;28;20611;-78
2021/03/08 00:06:00;;;;;;;17.30;10.50;;;5.40;99.90;;;;;;5034857;28;20224;-80
2021/03/08 00:08:27;;;;;;;18.77;10.03;;;5.40;99.90;;;;;;5035248;28;20311;-80
2021/03/08 00:10:54;;;;;;;26.23;10.83;;;5.10;99.90;;;;;;5035420;28;20240;-80
2021/03/08 00:13:20;;;;;;;21.93;11.30;;;5.10;99.90;;;;;;5034840;28;20336;-79
2021/03/08 00:15:46;;;;;;;17.97;9.90;;;5.10;99.90;;;;;;5035226;28;20194;-80
2021/03/08 00:18:12;;;;;;;21.20;10.93;;;4.90;99.90;;;;;;5035313;28;20199;-79
2021/03/08 00:20:39;;;;;;;20.73;10.07;;;4.70;99.90;;;;;;5035051;28;20626;-79
2021/03/08 00:23:05;;;;;;;18.83;10.50;;;4.80;99.90;;;;;;5035046;28;20671;-80
2021/03/08 00:25:34;;;;;;;19.50;10.47;;;4.90;99.90;;;;;;5034979;28;20204;-80
2021/03/08 00:28:01;;;;;;;18.90;10.73;;;5.10;99.90;;;;;;5019282;28;20230;-80
2021/03/08 00:30:28;;;;;;;18.20;10.50;;;5.10;99.90;;;;;;5034941;28;20217;-80
2021/03/08 00:32:54;;;;;;;21.40;11.00;;;5.20;99.90;;;;;;5034668;28;20204;-80
2021/03/08 00:35:21;;;;;;;18.97;10.50;;;5.20;99.90;;;;;;5034352;28;20677;-79
2021/03/08 00:37:47;;;;;;;20.20;11.30;;;5.10;99.90;;;;;;5034308;28;20241;-80
2021/03/08 00:40:16;;;;;;;18.30;10.43;;;5.00;99.90;;;;;;5034304;28;20277;-80
2021/03/08 00:42:44;;;;;;;22.70;11.47;;;4.90;99.90;;;;;;5035073;28;20191;-79
2021/03/08 00:45:12;;;;;;;20.47;11.60;;;4.90;99.90;;;;;;5034129;28;20198;-80
2021/03/08 00:47:39;;;;;;;21.47;11.53;;;4.90;99.90;;;;;;5034202;28;20234;-79
2021/03/08 00:50:07;;;;;;;19.93;11.10;;;4.80;99.90;;;;;;5034766;28;20224;-80
2021/03/08 00:52:36;;;;;;;25.40;12.10;;;4.80;99.90;;;;;;5034308;28;20236;-79
2021/03/08 00:55:02;;;;;;;23.90;12.63;;;4.70;99.90;;;;;;5034767;28;20204;-79
2021/03/08 00:57:28;;;;;;;23.83;12.67;;;4.60;99.90;;;;;;5034774;28;20574;-79
2021/03/08 00:59:56;;;;;;;24.30;13.13;;;4.70;99.90;;;;;;5033574;28;20237;-80
2021/03/08 01:02:22;;;;;;;27.97;13.70;;;4.50;99.90;;;;;;5034384;28;20198;-80
2021/03/08 01:04:49;;;;;;;25.33;13.43;;;4.30;99.90;;;;;;5033485;28;20237;-79
2021/03/08 01:07:15;;;;;;;22.87;12.60;;;4.10;99.90;;;;;;5033611;28;20192;-79
2021/03/08 01:09:41;;;;;;;31.13;14.40;;;4.00;99.90;;;;;;5034860;28;20203;-80
2021/03/08 01:12:09;;;;;;;26.37;13.37;;;3.90;99.90;;;;;;5034524;28;20193;-80
2021/03/08 01:14:37;;;;;;;25.70;12.50;;;3.70;99.90;;;;;;5034119;28;20197;-80
2021/03/08 01:17:04;;;;;;;27.50;13.47;;;3.30;99.90;;;;;;5034537;28;20562;-79
2021/03/08 01:19:30;;;;;;;27.40;13.67;;;3.10;99.90;;;;;;5034555;28;20208;-80
2021/03/08 01:21:57;;;;;;;25.40;13.13;;;3.00;99.90;;;;;;5034522;28;20230;-80
2021/03/08 01:24:23;;;;;;;24.87;12.90;;;2.80;99.90;;;;;;5034529;28;20228;-79
2021/03/08 01:26:50;;;;;;;28.37;14.13;;;2.70;99.90;;;;;;5034295;28;20197;-80
2021/03/08 01:29:16;;;;;;;26.67;12.43;;;2.60;99.90;;;;;;5034074;28;20337;-80
2021/03/08 01:31:42;;;;;;;26.67;13.33;;;2.60;99.90;;;;;;5033954;28;20678;-80
2021/03/08 01:34:10;;;;;;;29.70;12.90;;;2.60;99.90;;;;;;5034269;28;20208;-80
2021/03/08 01:36:36;;;;;;;23.23;12.20;;;2.60;99.90;;;;;;5034174;28;20293;-79
2021/03/08 01:39:04;;;;;;;25.80;12.37;;;2.60;99.90;;;;;;5034210;28;20289;-80
2021/03/08 01:41:30;;;;;;;25.20;12.17;;;2.50;99.90;;;;;;5034396;28;20257;-80
2021/03/08 01:43:56;;;;;;;24.60;12.43;;;2.50;99.90;;;;;;5033898;28;20572;-80
2021/03/08 01:46:23;;;;;;;26.10;13.33;;;2.50;99.90;;;;;;5033877;28;20197;-80
2021/03/08 01:48:50;;;;;;;27.73;13.73;;;2.50;99.90;;;;;;5033112;28;20205;-80
2021/03/08 01:51:18;;;;;;;26.50;12.97;;;2.50;99.90;;;;;;5034138;28;20205;-79
2021/03/08 01:53:44;;;;;;;28.13;13.27;;;2.40;99.90;;;;;;5033808;28;20233;-80
2021/03/08 01:56:11;;;;;;;26.27;13.27;;;2.40;99.90;;;;;;5033562;28;20682;-80
2021/03/08 01:58:39;;;;;;;32.50;13.33;;;2.50;99.90;;;;;;5033637;28;20230;-80
2021/03/08 02:01:06;;;;;;;25.43;13.30;;;2.50;99.90;;;;;;5033581;28;20229;-80
2021/03/08 02:03:32;;;;;;;29.43;13.40;;;2.50;99.90;;;;;;5033992;28;20288;-80
2021/03/08 02:05:59;;;;;;;29.13;13.63;;;2.30;99.90;;;;;;5034185;28;20547;-80
2021/03/08 02:08:27;;;;;;;25.33;12.60;;;2.40;99.90;;;;;;5034309;28;20282;-80
2021/03/08 02:10:53;;;;;;;28.30;13.47;;;2.40;99.90;;;;;;5034213;28;20190;-80
2021/03/08 02:13:51;;;;;;;28.17;13.90;;;2.40;99.90;;;;;;5033813;28;20234;-80
2021/03/08 02:16:23;;;;;;;32.10;13.70;;;2.50;99.90;;;;;;5033581;28;20649;-80
2021/03/08 02:18:56;;;;;;;28.73;13.20;;;2.40;99.90;;;;;;5033255;28;20202;-80
2021/03/08 02:22:05;;;;;;;26.83;13.60;;;2.20;99.90;;;;;;5033181;28;20389;-80
2021/03/08 02:25:17;;;;;;;31.20;13.83;;;2.00;99.90;;;;;;5015518;28;20267;-80
2021/03/08 02:28:14;;;;;;;27.17;13.73;;;2.00;99.90;;;;;;5033277;28;20193;-80
2021/03/08 02:30:44;;;;;;;28.30;13.63;;;2.10;99.90;;;;;;5033412;28;20289;-80
2021/03/08 02:33:15;;;;;;;27.53;14.43;;;2.20;99.90;;;;;;5033146;28;20211;-80
2021/03/08 02:35:44;;;;;;;35.23;15.43;;;2.20;99.90;;;;;;5033079;28;20293;-80
2021/03/08 02:38:15;;;;;;;38.33;16.93;;;2.20;99.90;;;;;;5033161;28;20716;-81
2021/03/08 02:40:46;;;;;;;33.73;15.67;;;2.10;99.90;;;;;;5033264;28;20225;-81
2021/03/08 02:43:20;;;;;;;35.40;15.83;;;1.90;99.90;;;;;;5033360;28;20296;-80
2021/03/08 02:45:50;;;;;;;32.37;15.27;;;1.90;99.90;;;;;;5033243;28;20216;-81
2021/03/08 02:48:17;;;;;;;28.77;14.00;;;2.00;99.90;;;;;;5033331;28;20623;-81
2021/03/08 02:50:46;;;;;;;33.13;15.40;;;1.90;99.90;;;;;;5032981;28;20203;-80
2021/03/08 02:53:15;;;;;;;32.33;15.20;;;1.90;99.90;;;;;;5033624;28;20674;-80
2021/03/08 02:55:47;;;;;;;29.67;15.07;;;1.80;99.90;;;;;;5032902;28;20201;-80
2021/03/08 02:58:15;;;;;;;32.60;15.23;;;1.80;99.90;;;;;;5032847;28;20197;-80
2021/03/08 03:00:41;;;;;;;29.20;13.50;;;1.80;99.90;;;;;;5036399;28;20257;-80
2021/03/08 03:03:09;;;;;;;33.03;15.23;;;1.80;99.90;;;;;;5037172;28;20204;-80
2021/03/08 03:05:37;;;;;;;31.13;15.10;;;1.80;99.90;;;;;;5037070;28;20193;-80
2021/03/08 03:08:05;;;;;;;33.80;14.43;;;1.70;99.90;;;;;;5037075;28;20197;-82
2021/03/08 03:10:34;;;;;;;32.00;15.37;;;1.60;99.90;;;;;;5036817;28;20282;-81
2021/03/08 03:13:03;;;;;;;28.73;14.30;;;1.60;99.90;;;;;;5036649;28;20532;-81
2021/03/08 03:15:30;;;;;;;31.27;14.47;;;1.60;99.90;;;;;;5036501;28;20395;-79
2021/03/08 03:17:59;;;;;;;35.03;15.63;;;1.70;99.90;;;;;;5036801;28;20270;-81
2021/03/08 03:20:28;;;;;;;35.80;15.00;;;1.60;99.90;;;;;;5036564;28;20558;-81
2021/03/08 03:22:56;;;;;;;33.33;14.67;;;1.70;99.90;;;;;;5036918;28;20240;-81
2021/03/08 03:25:24;;;;;;;30.60;14.90;;;1.70;99.90;;;;;;5036473;28;20709;-81
2021/03/08 03:27:52;;;;;;;33.40;14.97;;;1.70;99.90;;;;;;5036406;28;20206;-80
2021/03/08 03:30:21;;;;;;;36.10;16.37;;;1.80;99.90;;;;;;5036294;28;20331;-81
2021/03/08 03:32:48;;;;;;;33.83;15.73;;;1.90;99.90;;;;;;5037237;28;20217;-81
2021/03/08 03:35:15;;;;;;;33.57;15.47;;;2.00;99.90;;;;;;5036991;28;20205;-80
2021/03/08 03:37:44;;;;;;;36.00;15.77;;;2.10;99.90;;;;;;5036908;28;20607;-80
2021/03/08 03:40:13;;;;;;;33.33;15.30;;;2.00;99.90;;;;;;5036453;28;20673;-80
2021/03/08 03:42:41;;;;;;;34.47;15.87;;;2.10;99.90;;;;;;5036722;28;20205;-80
2021/03/08 03:45:10;;;;;;;38.97;16.97;;;2.20;99.90;;;;;;5036556;28;20194;-81
2021/03/08 03:47:37;;;;;;;34.03;15.80;;;2.20;99.90;;;;;;5037037;28;20667;-81
2021/03/08 03:50:05;;;;;;;31.67;15.13;;;2.00;99.90;;;;;;5036517;28;20259;-81
2021/03/08 03:52:32;;;;;;;35.00;17.30;;;2.00;99.90;;;;;;5036712;28;20194;-81
2021/03/08 03:54:59;;;;;;;36.17;15.97;;;2.00;99.90;;;;;;5036585;28;20202;-81
2021/03/08 03:57:32;;;;;;;35.37;17.00;;;1.90;99.90;;;;;;5036954;28;20284;-81
2021/03/08 04:00:00;;;;;;;35.97;15.80;;;1.90;99.90;;;;;;5036573;28;20698;-81
2021/03/08 04:02:32;;;;;;;39.07;17.40;;;2.00;99.90;;;;;;5035820;28;20233;-81
2021/03/08 04:05:01;;;;;;;32.80;15.33;;;2.00;99.90;;;;;;5035885;28;20283;-81
2021/03/08 04:07:28;;;;;;;40.80;16.33;;;2.00;99.90;;;;;;5036003;28;20281;-81
2021/03/08 04:09:55;;;;;;;34.17;16.87;;;1.90;99.90;;;;;;5036073;28;20738;-81
2021/03/08 04:12:27;;;;;;;31.00;15.83;;;2.10;99.90;;;;;;5035593;28;20234;-81
2021/03/08 04:14:58;;;;;;;35.50;16.53;;;2.10;99.90;;;;;;5035747;28;20205;-81
2021/03/08 04:17:27;;;;;;;34.67;16.27;;;2.00;99.90;;;;;;5035608;28;20683;-81
2021/03/08 04:19:56;;;;;;;35.47;17.57;;;2.10;99.90;;;;;;5035563;28;20197;-81
2021/03/08 04:22:25;;;;;;;35.13;16.33;;;2.30;99.90;;;;;;5035309;28;20220;-81
2021/03/08 04:24:53;;;;;;;40.50;17.33;;;2.30;99.90;;;;;;5035632;28;20250;-81
2021/03/08 04:27:21;;;;;;;39.73;18.33;;;2.40;99.90;;;;;;5035300;28;20808;-82
2021/03/08 04:29:50;;;;;;;34.50;16.60;;;2.50;99.90;;;;;;5035429;28;20202;-81
2021/03/08 04:32:18;;;;;;;40.47;18.43;;;2.40;99.90;;;;;;5035309;28;20745;-81
2021/03/08 04:34:46;;;;;;;36.70;17.60;;;2.50;99.90;;;;;;5035547;28;20194;-80
2021/03/08 04:37:13;;;;;;;42.07;16.17;;;2.50;99.90;;;;;;5035404;28;20230;-81
2021/03/08 04:39:40;;;;;;;43.03;17.60;;;2.50;99.90;;;;;;5035263;28;20207;-81
2021/03/08 04:42:07;;;;;;;38.17;18.00;;;2.50;99.90;;;;;;5035082;28;20232;-81
2021/03/08 04:44:35;;;;;;;41.87;18.17;;;2.50;99.90;;;;;;5034932;28;20685;-81
2021/03/08 04:47:04;;;;;;;36.93;18.33;;;2.50;99.90;;;;;;5035035;28;20194;-81
2021/03/08 04:49:32;;;;;;;44.50;19.47;;;2.50;99.90;;;;;;5034705;28;20198;-81
2021/03/08 04:51:59;;;;;;;43.83;19.07;;;2.50;99.90;;;;;;5034959;28;20293;-81
2021/03/08 04:54:26;;;;;;;44.53;19.63;;;2.60;99.90;;;;;;5034889;28;20565;-81
2021/03/08 04:56:54;;;;;;;51.43;19.83;;;2.60;99.90;;;;;;5034725;28;20282;-81
2021/03/08 04:59:21;;;;;;;45.80;20.90;;;2.60;99.90;;;;;;5034561;28;20226;-81
2021/03/08 05:01:49;;;;;;;47.67;19.83;;;2.60;99.90;;;;;;5034476;28;20222;-81
2021/03/08 05:04:19;;;;;;;45.23;20.60;;;2.60;99.90;;;;;;5034882;28;20700;-80
2021/03/08 05:06:46;;;;;;;44.80;19.80;;;2.70;99.90;;;;;;5034980;28;20288;-81
2021/03/08 05:09:15;;;;;;;48.00;20.27;;;2.70;99.90;;;;;;5034398;28;20666;-80
2021/03/08 05:11:42;;;;;;;50.23;20.37;;;2.70;99.90;;;;;;5034463;28;20248;-81
2021/03/08 05:14:11;;;;;;;46.23;19.87;;;2.70;99.90;;;;;;5034397;28;20542;-80
2021/03/08 05:16:41;;;;;;;53.33;22.33;;;2.70;99.90;;;;;;5034129;28;20288;-80
2021/03/08 05:19:09;;;;;;;51.57;22.43;;;2.80;99.90;;;;;;5034138;28;20798;-81
2021/03/08 05:21:36;;;;;;;55.65;26.65;;;2.90;99.90;;;;;;5032939;28;20465;-80
2021/03/08 05:24:05;;;;;;;48.17;22.60;;;2.80;99.90;;;;;;5033104;28;20214;-80
2021/03/08 05:26:31;;;;;;;52.80;22.27;;;2.80;99.90;;;;;;5031424;28;20201;-81
2021/03/08 05:28:59;;;;;;;49.63;21.53;;;2.90;99.90;;;;;;5032048;28;20229;-80
2021/03/08 05:31:30;;;;;;;49.03;20.70;;;3.10;99.90;;;;;;5034461;28;20201;-81
2021/03/08 05:34:01;;;;;;;51.13;22.70;;;3.10;99.90;;;;;;5034150;28;20301;-81
2021/03/08 05:36:28;;;;;;;57.50;23.50;;;3.20;99.90;;;;;;5034354;28;20619;-80
2021/03/08 05:38:56;;;;;;;52.53;23.17;;;3.20;99.90;;;;;;5033974;28;20197;-81
2021/03/08 05:41:28;;;;;;;53.03;22.87;;;3.30;99.90;;;;;;5033898;28;20307;-81
2021/03/08 05:43:59;;;;;;;53.70;23.17;;;3.30;99.90;;;;;;5034089;28;20300;-81
2021/03/08 05:46:42;;;;;;;53.10;24.07;;;3.30;99.90;;;;;;5039358;28;20281;-80
2021/03/08 05:49:55;;;;;;;49.97;21.77;;;3.30;99.90;;;;;;5014566;28;20286;-80
2021/03/08 05:52:56;;;;;;;52.80;23.63;;;3.40;99.90;;;;;;5013974;28;20285;-81
2021/03/08 05:55:53;;;;;;;49.87;20.80;;;3.30;99.90;;;;;;5005760;28;20202;-80
2021/03/08 05:58:47;;;;;;;50.00;20.33;;;3.40;99.90;;;;;;5013681;28;20199;-80
2021/03/08 06:01:46;;;;;;;50.47;20.80;;;3.30;99.90;;;;;;5011786;28;20640;-80
2021/03/08 06:04:27;;;;;;;49.43;20.23;;;3.40;99.90;;;;;;5013690;28;20201;-80
2021/03/08 06:07:26;;;;;;;51.03;21.80;;;3.30;99.90;;;;;;5014033;28;20199;-80
2021/03/08 06:09:56;;;;;;;49.73;22.57;;;3.40;99.90;;;;;;5013686;28;20205;-80
2021/03/08 06:12:26;;;;;;;50.58;21.55;;;3.40;99.90;;;;;;5013595;28;20386;-80
2021/03/08 06:14:58;;;;;;;48.57;22.33;;;3.20;99.90;;;;;;5031634;28;20210;-81
2021/03/08 06:17:25;;;;;;;48.23;20.13;;;3.20;99.90;;;;;;5031543;28;20674;-82
2021/03/08 06:19:52;;;;;;;50.50;21.90;;;3.20;99.90;;;;;;5028149;28;20616;-82
2021/03/08 06:22:20;;;;;;;49.93;21.50;;;3.20;99.90;;;;;;5031738;28;20221;-82
2021/03/08 06:24:47;;;;;;;49.93;20.83;;;3.20;99.90;;;;;;5031962;28;20238;-81
2021/03/08 06:27:15;;;;;;;48.93;22.23;;;3.20;99.90;;;;;;5033170;28;20229;-81
2021/03/08 06:29:43;;;;;;;48.90;21.83;;;3.30;99.90;;;;;;5033029;28;20632;-82
2021/03/08 06:32:11;;;;;;;49.37;21.07;;;3.30;99.90;;;;;;5033156;28;20198;-82
2021/03/08 06:34:40;;;;;;;54.23;23.73;;;3.20;99.90;;;;;;5032601;28;20206;-82
2021/03/08 06:37:08;;;;;;;53.10;22.30;;;3.20;99.90;;;;;;5033598;28;20275;-82
2021/03/08 06:39:35;;;;;;;55.43;21.73;;;3.20;99.90;;;;;;5032965;28;20206;-82
2021/03/08 06:42:01;;;;;;;57.83;22.67;;;3.30;99.90;;;;;;5032959;28;20218;-82
2021/03/08 06:44:28;;;;;;;52.43;22.57;;;3.40;99.90;;;;;;5032653;28;20209;-82
2021/03/08 06:46:55;;;;;;;49.27;22.97;;;3.40;99.90;;;;;;5032803;28;20241;-82
2021/03/08 06:49:22;;;;;;;52.33;23.80;;;3.50;99.90;;;;;;5032419;28;20238;-82
2021/03/08 06:52:02;;;;;;;58.03;24.00;;;3.60;99.90;;;;;;5032957;28;20284;-81
2021/03/08 06:54:29;;;;;;;54.70;24.00;;;3.60;99.90;;;;;;5032365;28;20205;-81
2021/03/08 06:56:55;;;;;;;54.63;23.93;;;3.80;99.90;;;;;;5032467;28;20289;-81
2021/03/08 06:59:22;;;;;;;55.60;24.07;;;3.90;99.90;;;;;;5032268;28;20250;-81
2021/03/08 07:01:51;;;;;;;50.70;23.13;;;4.00;99.90;;;;;;5032251;28;20217;-80
2021/03/08 07:04:21;;;;;;;53.93;23.80;;;4.20;99.90;;;;;;5032544;28;20223;-82
2021/03/08 07:07:01;;;;;;;54.03;23.53;;;4.20;99.90;;;;;;5032608;28;20195;-82
2021/03/08 07:09:29;;;;;;;54.30;23.60;;;4.30;99.90;;;;;;5032681;28;20207;-81
2021/03/08 07:12:09;;;;;;;54.97;23.23;;;4.40;99.90;;;;;;5032362;28;20203;-81
2021/03/08 07:14:37;;;;;;;54.73;23.63;;;4.50;99.90;;;;;;5032302;28;20299;-81
2021/03/08 07:17:03;;;;;;;56.97;24.07;;;4.70;99.90;;;;;;5032216;28;20660;-81
2021/03/08 07:19:30;;;;;;;57.57;25.10;;;4.70;99.90;;;;;;5032179;28;20289;-81
2021/03/08 07:21:57;;;;;;;54.33;24.20;;;4.90;99.90;;;;;;5032306;28;20660;-81
2021/03/08 07:24:23;;;;;;;56.83;25.20;;;5.00;99.90;;;;;;5032348;28;20198;-80
2021/03/08 07:26:51;;;;;;;62.80;25.90;;;5.10;99.90;;;;;;5032234;28;20253;-81
2021/03/08 07:29:19;;;;;;;56.67;26.53;;;5.20;99.90;;;;;;5031970;28;20203;-82
2021/03/08 07:31:47;;;;;;;56.77;25.63;;;5.30;99.90;;;;;;5032096;28;20231;-81
2021/03/08 07:34:14;;;;;;;60.20;28.03;;;5.50;99.90;;;;;;5032289;28;20660;-81
2021/03/08 07:36:43;;;;;;;63.80;27.67;;;5.70;99.90;;;;;;5029521;28;20297;-81
2021/03/08 07:39:12;;;;;;;61.93;27.20;;;5.80;99.90;;;;;;5012521;28;20197;-81
2021/03/08 07:41:51;;;;;;;60.63;27.93;;;5.90;99.90;;;;;;5012389;28;20706;-82
2021/03/08 07:44:23;;;;;;;62.17;27.80;;;6.00;99.90;;;;;;5027582;28;20202;-81
2021/03/08 07:46:50;;;;;;;62.40;28.27;;;6.00;99.90;;;;;;5034031;28;20664;-80
2021/03/08 07:49:17;;;;;;;66.07;28.17;;;5.90;99.90;;;;;;5034521;28;20203;-80
2021/03/08 07:52:05;;;;;;;61.10;28.93;;;5.90;99.90;;;;;;5035667;28;20198;-81
2021/03/08 07:54:54;;;;;;;60.47;27.93;;;5.90;99.90;;;;;;5035643;28;20202;-81
2021/03/08 07:57:22;;;;;;;70.20;30.67;;;5.90;99.90;;;;;;5035502;28;20222;-81
2021/03/08 07:59:48;;;;;;;61.40;28.47;;;5.90;99.90;;;;;;5033656;28;20210;-81
2021/03/08 08:02:14;;;;;;;87.63;37.57;;;5.90;99.90;;;;;;5025328;28;20234;-81
2021/03/08 08:04:41;;;;;;;83.67;35.53;;;5.90;99.90;;;;;;5030854;28;20920;-81
2021/03/08 08:07:11;;;;;;;76.17;34.07;;;5.90;99.90;;;;;;5032750;28;20695;-82
2021/03/08 08:09:40;;;;;;;71.87;33.10;;;6.00;99.90;;;;;;5033139;28;20652;-81
2021/03/08 08:12:10;;;;;;;68.67;31.53;;;6.00;99.90;;;;;;5033655;28;20730;-81
2021/03/08 08:14:39;;;;;;;72.20;32.80;;;6.10;99.90;;;;;;5033279;28;20198;-81
2021/03/08 08:17:08;;;;;;;72.53;31.17;;;6.10;99.90;;;;;;5034112;28;20209;-81
2021/03/08 08:19:36;;;;;;;71.13;32.97;;;6.30;99.90;;;;;;5031949;28;20286;-81
2021/03/08 08:22:03;;;;;;;69.70;32.00;;;6.30;99.90;;;;;;5033356;28;20230;-81
2021/03/08 08:24:31;;;;;;;63.93;30.73;;;6.30;99.90;;;;;;5034315;28;20556;-80
2021/03/08 08:26:58;;;;;;;55.40;28.13;;;6.20;99.90;;;;;;5034774;28;20200;-81
2021/03/08 08:29:26;;;;;;;62.77;29.67;;;6.30;99.90;;;;;;5035009;28;20198;-81
2021/03/08 08:32:01;;;;;;;64.93;29.60;;;6.30;99.90;;;;;;5034521;28;20210;-81
2021/03/08 08:34:32;;;;;;;69.93;31.50;;;6.20;99.90;;;;;;5034816;28;20199;-81
2021/03/08 08:37:11;;;;;;;73.07;32.13;;;6.30;99.90;;;;;;5034454;28;20543;-82
2021/03/08 08:39:39;;;;;;;70.23;31.40;;;6.30;99.90;;;;;;5032668;28;20206;-82
2021/03/08 08:42:17;;;;;;;70.13;31.23;;;6.40;99.90;;;;;;5030972;28;20699;-81
2021/03/08 08:44:44;;;;;;;71.67;32.70;;;6.30;99.90;;;;;;5034586;28;20286;-81
2021/03/08 08:47:23;;;;;;;70.30;31.40;;;6.30;99.90;;;;;;5034016;28;20238;-81
2021/03/08 08:49:53;;;;;;;66.43;32.03;;;6.30;99.90;;;;;;5033867;28;20287;-81
2021/03/08 08:52:43;;;;;;;63.93;29.60;;;6.40;99.90;;;;;;5033804;28;20269;-81
2021/03/08 08:55:12;;;;;;;63.90;30.23;;;6.30;99.90;;;;;;5034424;28;20230;-80
2021/03/08 08:57:39;;;;;;;62.00;29.93;;;6.40;99.90;;;;;;5032363;28;20198;-80
2021/03/08 09:00:21;;;;;;;55.83;27.73;;;6.50;99.90;;;;;;5033297;28;20238;-80
2021/03/08 09:02:48;;;;;;;54.27;27.17;;;6.50;99.90;;;;;;5026970;28;20271;-81
2021/03/08 09:05:44;;;;;;;60.37;29.27;;;6.50;99.90;;;;;;5023895;28;20233;-81
2021/03/08 09:08:25;;;;;;;62.00;29.30;;;6.60;99.90;;;;;;4950996;29;20207;-80
2021/03/08 09:10:52;;;;;;;65.53;27.10;;;6.70;99.90;;;;;;5019778;28;20705;-81
2021/03/08 09:13:18;;;;;;;53.03;24.23;;;6.60;99.90;;;;;;5033605;28;20198;-80
2021/03/08 09:15:45;;;;;;;53.53;25.53;;;6.40;99.90;;;;;;5033189;28;20340;-81
2021/03/08 09:18:12;;;;;;;54.27;25.93;;;6.10;99.90;;;;;;5033121;28;20200;-81
2021/03/08 09:20:39;;;;;;;53.10;25.77;;;6.20;99.90;;;;;;5030435;28;20206;-81
2021/03/08 09:23:24;;;;;;;49.33;24.30;;;6.20;99.90;;;;;;5033540;28;20225;-81
2021/03/08 09:26:03;;;;;;;52.00;24.90;;;6.30;99.90;;;;;;5031797;28;20208;-81
2021/03/08 09:28:31;;;;;;;45.17;21.77;;;6.50;99.90;;;;;;5031510;28;20198;-81
2021/03/08 09:30:57;;;;;;;40.23;19.27;;;6.40;99.90;;;;;;5032802;28;20611;-81
2021/03/08 09:33:24;;;;;;;42.37;20.37;;;6.20;99.90;;;;;;5033406;28;20196;-81
2021/03/08 09:35:53;;;;;;;35.07;16.80;;;6.10;99.90;;;;;;5032887;28;20206;-81
2021/03/08 09:38:21;;;;;;;40.23;18.67;;;6.20;99.90;;;;;;5033027;28;20558;-80
2021/03/08 09:40:50;;;;;;;43.33;20.53;;;6.10;99.90;;;;;;5032907;28;20564;-80
2021/03/08 09:43:20;;;;;;;47.33;22.77;;;6.10;99.90;;;;;;5033062;28;20389;-80
2021/03/08 09:45:55;;;;;;;43.87;20.93;;;6.40;99.90;;;;;;5033089;28;20195;-80
2021/03/08 09:48:21;;;;;;;43.43;22.17;;;6.50;99.90;;;;;;5032678;28;20212;-81
2021/03/08 09:50:48;;;;;;;49.93;26.07;;;6.60;99.90;;;;;;5032920;28;20769;-81
2021/03/08 09:53:14;;;;;;;46.03;23.07;;;6.60;99.90;;;;;;5032952;28;20201;-81
2021/03/08 09:55:41;;;;;;;52.20;23.83;;;6.60;99.90;;;;;;5033787;28;20596;-81
2021/03/08 09:58:13;;;;;;;44.83;21.93;;;6.80;99.90;;;;;;5032510;28;20209;-81
2021/03/08 10:00:41;;;;;;;41.67;20.67;;;6.90;99.90;;;;;;5029906;28;20203;-80
2021/03/08 10:03:08;;;;;;;39.03;18.47;;;7.00;99.90;;;;;;5032372;28;20717;-80
2021/03/08 10:05:41;;;;;;;34.87;18.53;;;7.10;99.90;;;;;;5033000;28;20205;-80
2021/03/08 10:08:08;;;;;;;48.87;23.10;;;7.10;99.90;;;;;;5031688;28;20638;-81
2021/03/08 10:10:38;;;;;;;48.77;23.17;;;7.10;99.90;;;;;;5032382;28;20232;-81
2021/03/08 10:13:04;;;;;;;46.90;23.40;;;7.10;99.90;;;;;;5032956;28;20222;-80
2021/03/08 10:15:46;;;;;;;39.37;18.57;;;7.30;99.90;;;;;;5032292;28;20627;-80
2021/03/08 10:18:14;;;;;;;45.13;23.30;;;7.20;99.90;;;;;;5029656;28;20187;-80
2021/03/08 10:20:47;;;;;;;40.57;20.40;;;7.30;99.90;;;;;;5032147;28;20289;-80
2021/03/08 10:23:17;;;;;;;45.13;21.57;;;7.20;99.90;;;;;;5028235;28;20222;-82
2021/03/08 10:25:44;;;;;;;43.07;22.63;;;7.50;99.90;;;;;;5032107;28;20202;-80
2021/03/08 10:28:11;;;;;;;44.17;21.00;;;8.80;99.90;;;;;;5032488;28;20278;-81
2021/03/08 10:30:38;;;;;;;40.97;19.73;;;10.80;99.90;;;;;;5032018;28;20682;-80
2021/03/08 10:33:07;;;;;;;35.07;19.17;;;11.70;99.90;;;;;;5032459;28;20292;-81
2021/03/08 10:35:37;;;;;;;43.00;23.57;;;12.20;99.90;;;;;;5029389;28;20663;-80
2021/03/08 10:38:04;;;;;;;41.23;20.77;;;12.70;99.90;;;;;;5032006;28;20203;-81
2021/03/08 10:40:31;;;;;;;40.53;21.23;;;13.80;99.90;;;;;;5032187;28;20197;-80
2021/03/08 10:42:58;;;;;;;39.70;20.07;;;14.20;99.90;;;;;;5032029;28;20254;-80
2021/03/08 10:45:25;;;;;;;34.70;19.87;;;13.60;99.90;;;;;;5031889;28;20196;-78
2021/03/08 10:48:08;;;;;;;33.97;19.60;;;15.20;99.90;;;;;;5029118;28;20585;-79
2021/03/08 10:50:43;;;;;;;39.73;20.20;;;15.50;99.90;;;;;;5029343;28;20196;-81
2021/03/08 10:53:11;;;;;;;37.33;19.57;;;14.50;99.90;;;;;;5031690;28;20220;-80
2021/03/08 10:55:37;;;;;;;34.33;17.37;;;14.20;99.90;;;;;;5032128;28;20193;-82
2021/03/08 10:58:04;;;;;;;29.17;16.10;;;14.80;99.90;;;;;;5032016;28;20238;-80
2021/03/08 11:00:30;;;;;;;33.47;18.43;;;15.00;99.90;;;;;;5031184;28;20292;-79
2021/03/08 11:02:59;;;;;;;35.13;18.23;;;14.50;99.90;;;;;;5031767;28;20229;-79
2021/03/08 11:05:27;;;;;;;33.47;18.63;;;14.50;99.90;;;;;;5032178;28;20228;-79
2021/03/08 11:07:54;;;;;;;27.80;16.83;;;14.80;99.90;;;;;;5029679;28;20201;-79
2021/03/08 11:10:34;;;;;;;34.03;18.33;;;15.60;99.90;;;;;;5032223;28;20247;-79
2021/03/08 11:13:02;;;;;;;33.07;18.00;;;15.10;99.90;;;;;;5030192;28;20684;-79
2021/03/08 11:15:29;;;;;;;27.93;16.70;;;16.00;99.90;;;;;;5030413;28;20231;-82
2021/03/08 11:17:55;;;;;;;30.17;16.43;;;16.80;99.90;;;;;;5019490;28;20202;-78
2021/03/08 11:20:25;;;;;;;30.23;16.10;;;15.00;99.90;;;;;;5033171;28;20288;-78
2021/03/08 11:22:58;;;;;;;29.67;16.33;;;14.20;99.90;;;;;;5036037;28;20744;-80
2021/03/08 11:25:36;;;;;;;24.60;14.80;;;14.20;99.90;;;;;;5035815;28;20193;-80
2021/03/08 11:28:05;;;;;;;26.93;15.00;;;13.20;99.90;;;;;;5036062;28;20604;-80
2021/03/08 11:30:32;;;;;;;29.50;15.40;;;12.90;99.90;;;;;;5035872;28;20207;-81
2021/03/08 11:33:00;;;;;;;32.40;16.03;;;12.90;99.90;;;;;;5035445;28;20245;-81
2021/03/08 11:35:28;;;;;;;29.73;15.93;;;12.80;99.90;;;;;;5032671;28;20192;-81
2021/03/08 11:37:58;;;;;;;30.03;16.27;;;12.40;99.90;;;;;;5033643;28;20260;-81
2021/03/08 11:40:26;;;;;;;27.10;16.63;;;12.70;99.90;;;;;;5032825;28;20196;-80
2021/03/08 11:42:53;;;;;;;27.17;15.17;;;13.50;99.90;;;;;;5031341;28;20220;-80
2021/03/08 11:45:20;;;;;;;25.90;14.57;;;13.60;99.90;;;;;;5035585;28;20287;-80
2021/03/08 11:47:51;;;;;;;23.77;14.83;;;13.20;99.90;;;;;;5035369;28;20210;-80
2021/03/08 11:50:17;;;;;;;22.80;12.83;;;13.30;99.90;;;;;;5035468;28;20278;-80
2021/03/08 11:52:44;;;;;;;23.20;13.40;;;13.80;99.90;;;;;;5033941;28;20304;-80
2021/03/08 11:55:13;;;;;;;20.93;12.53;;;13.90;99.90;;;;;;5034843;28;20257;-80
2021/03/08 11:57:42;;;;;;;24.97;12.47;;;13.70;99.90;;;;;;5027381;28;20203;-80
2021/03/08 12:00:10;;;;;;;26.00;12.93;;;13.00;99.90;;;;;;5034576;28;20247;-80
2021/03/08 12:02:36;;;;;;;26.17;13.40;;;12.20;99.90;;;;;;5034777;28;20226;-80
2021/03/08 12:05:03;;;;;;;23.53;13.13;;;11.70;99.90;;;;;;5034916;28;20207;-80
2021/03/08 12:07:29;;;;;;;23.63;12.70;;;11.60;99.90;;;;;;5034442;28;20612;-80
2021/03/08 12:09:56;;;;;;;25.10;14.67;;;11.80;99.90;;;;;;5034499;28;20199;-80
2021/03/08 12:12:23;;;;;;;29.43;14.97;;;11.80;99.90;;;;;;5034930;28;20241;-80
2021/03/08 12:14:49;;;;;;;26.70;14.57;;;12.10;99.90;;;;;;5034288;28;20235;-80
2021/03/08 12:17:16;;;;;;;23.80;13.67;;;12.00;99.90;;;;;;5034595;28;20289;-80
2021/03/08 12:19:42;;;;;;;29.07;14.30;;;12.30;99.90;;;;;;5031523;28;20199;-80
2021/03/08 12:22:08;;;;;;;26.83;14.80;;;12.30;99.90;;;;;;5033351;28;20229;-79
2021/03/08 12:24:35;;;;;;;26.53;14.87;;;11.90;99.90;;;;;;5033982;28;20207;-80
2021/03/08 12:27:01;;;;;;;25.90;14.70;;;12.20;99.90;;;;;;5034490;28;20202;-80
2021/03/08 12:29:28;;;;;;;28.43;15.40;;;12.40;99.90;;;;;;5034663;28;20201;-80
2021/03/08 12:31:55;;;;;;;28.30;15.37;;;12.60;99.90;;;;;;5033050;28;20279;-80
2021/03/08 12:34:21;;;;;;;26.70;14.70;;;12.50;99.90;;;;;;5034083;28;20193;-79
2021/03/08 12:36:47;;;;;;;28.63;14.83;;;12.50;99.90;;;;;;5034524;28;20636;-79
2021/03/08 12:39:14;;;;;;;27.17;13.83;;;11.60;99.90;;;;;;5034296;28;20282;-80
2021/03/08 12:41:40;;;;;;;27.83;13.87;;;11.60;99.90;;;;;;5034291;28;20368;-80
2021/03/08 12:44:07;;;;;;;24.47;13.30;;;11.60;99.90;;;;;;5033768;28;21089;-80
2021/03/08 12:46:34;;;;;;;27.63;14.97;;;11.90;99.90;;;;;;5033005;28;20274;-80
2021/03/08 12:49:01;;;;;;;25.97;13.97;;;12.00;99.90;;;;;;5033397;28;20211;-80